sensor_id;sensor_type;location;lat;lon;timestamp;temperature;humidity
29321;DHT22;16323;51.130;6.612;2023-04-12T00:02:01;17.90;66.10
29321;DHT22;16323;51.130;6.612;2023-04-12T00:04:28;18.00;66.30
29321;DHT22;16323;51.130;6.612;2023-04-12T00:06:58;18.00;66.10
29321;DHT22;16323;51.130;6.612;2023-04-12T00:09:25;18.00;66.10
29321;DHT22;16323;51.130;6.612;2023-04-12T00:11:54;18.00;66.20
29321;DHT22;16323;51.130;6.612;2023-04-12T00:14:22;18.00;66.30
29321;DHT22;16323;51.130;6.612;2023-04-12T00:16:50;18.00;66.30
29321;DHT22;16323;51.130;6.612;2023-04-12T00:19:17;18.00;66.20
29321;DHT22;16323;51.130;6.612;2023-04-12T00:21:44;18.00;66.30
29321;DHT22;16323;51.130;6.612;2023-04-12T00:24:11;18.00;66.10
29321;DHT22;16323;51.130;6.612;2023-04-12T00:26:38;18.00;66.20
29321;DHT22;16323;51.130;6.612;2023-04-12T00:29:04;18.00;66.00
29321;DHT22;16323;51.130;6.612;2023-04-12T00:31:31;18.00;66.10
29321;DHT22;16323;51.130;6.612;2023-04-12T00:33:59;18.00;66.10
29321;DHT22;16323;51.130;6.612;2023-04-12T00:36:26;18.00;66.10
29321;DHT22;16323;51.130;6.612;2023-04-12T00:38:53;17.90;66.10
29321;DHT22;16323;51.130;6.612;2023-04-12T00:41:19;17.90;66.20
29321;DHT22;16323;51.130;6.612;2023-04-12T00:43:48;17.90;66.30
29321;DHT22;16323;51.130;6.612;2023-04-12T00:46:16;17.90;66.20
29321;DHT22;16323;51.130;6.612;2023-04-12T00:48:44;18.00;66.50
29321;DHT22;16323;51.130;6.612;2023-04-12T00:51:14;18.00;66.40
29321;DHT22;16323;51.130;6.612;2023-04-12T00:53:42;18.00;66.50
29321;DHT22;16323;51.130;6.612;2023-04-12T00:56:10;18.00;66.30
29321;DHT22;16323;51.130;6.612;2023-04-12T00:58:37;18.00;66.40
29321;DHT22;16323;51.130;6.612;2023-04-12T01:01:04;18.00;66.50
29321;DHT22;16323;51.130;6.612;2023-04-12T01:03:30;18.00;66.50
29321;DHT22;16323;51.130;6.612;2023-04-12T01:06:06;18.00;66.50
29321;DHT22;16323;51.130;6.612;2023-04-12T01:08:42;18.00;66.40
29321;DHT22;16323;51.130;6.612;2023-04-12T01:11:15;18.00;66.30
29321;DHT22;16323;51.130;6.612;2023-04-12T01:13:48;18.00;66.30
29321;DHT22;16323;51.130;6.612;2023-04-12T01:16:22;17.90;66.30
29321;DHT22;16323;51.130;6.612;2023-04-12T01:18:55;18.00;66.30
29321;DHT22;16323;51.130;6.612;2023-04-12T01:21:30;17.90;66.30
29321;DHT22;16323;51.130;6.612;2023-04-12T01:24:15;17.90;65.90
29321;DHT22;16323;51.130;6.612;2023-04-12T01:26:47;17.90;66.00
29321;DHT22;16323;51.130;6.612;2023-04-12T01:29:20;17.90;66.10
29321;DHT22;16323;51.130;6.612;2023-04-12T01:31:50;17.90;66.10
29321;DHT22;16323;51.130;6.612;2023-04-12T01:34:19;17.90;66.30
29321;DHT22;16323;51.130;6.612;2023-04-12T01:36:47;17.90;66.40
29321;DHT22;16323;51.130;6.612;2023-04-12T01:39:15;17.90;66.30
29321;DHT22;16323;51.130;6.612;2023-04-12T01:41:42;17.90;66.40
29321;DHT22;16323;51.130;6.612;2023-04-12T01:44:12;17.90;66.40
29321;DHT22;16323;51.130;6.612;2023-04-12T01:46:41;17.90;66.40
29321;DHT22;16323;51.130;6.612;2023-04-12T01:49:09;17.90;66.40
29321;DHT22;16323;51.130;6.612;2023-04-12T01:51:44;17.90;66.40
29321;DHT22;16323;51.130;6.612;2023-04-12T01:54:18;17.90;66.40
29321;DHT22;16323;51.130;6.612;2023-04-12T01:56:55;17.90;66.40
29321;DHT22;16323;51.130;6.612;2023-04-12T01:59:26;17.90;66.30
29321;DHT22;16323;51.130;6.612;2023-04-12T02:01:55;17.90;66.20
29321;DHT22;16323;51.130;6.612;2023-04-12T02:04:22;17.90;66.10
29321;DHT22;16323;51.130;6.612;2023-04-12T02:06:52;17.90;66.10
29321;DHT22;16323;51.130;6.612;2023-04-12T02:09:19;17.90;66.10
29321;DHT22;16323;51.130;6.612;2023-04-12T02:11:47;17.90;66.20
29321;DHT22;16323;51.130;6.612;2023-04-12T02:14:14;17.90;66.10
29321;DHT22;16323;51.130;6.612;2023-04-12T02:16:41;17.90;66.10
29321;DHT22;16323;51.130;6.612;2023-04-12T02:19:10;17.90;66.00
29321;DHT22;16323;51.130;6.612;2023-04-12T02:21:40;17.90;66.20
29321;DHT22;16323;51.130;6.612;2023-04-12T02:24:07;17.90;66.20
29321;DHT22;16323;51.130;6.612;2023-04-12T02:26:34;17.90;66.20
29321;DHT22;16323;51.130;6.612;2023-04-12T02:29:01;17.90;66.30
29321;DHT22;16323;51.130;6.612;2023-04-12T02:31:28;17.90;66.30
29321;DHT22;16323;51.130;6.612;2023-04-12T02:33:55;17.90;66.30
29321;DHT22;16323;51.130;6.612;2023-04-12T02:36:23;17.90;66.30
29321;DHT22;16323;51.130;6.612;2023-04-12T02:38:50;17.90;66.30
29321;DHT22;16323;51.130;6.612;2023-04-12T02:41:17;17.90;66.40
29321;DHT22;16323;51.130;6.612;2023-04-12T02:43:44;17.90;66.30
29321;DHT22;16323;51.130;6.612;2023-04-12T02:46:15;17.90;66.40
29321;DHT22;16323;51.130;6.612;2023-04-12T02:48:43;17.90;66.20
29321;DHT22;16323;51.130;6.612;2023-04-12T02:51:10;17.90;66.00
29321;DHT22;16323;51.130;6.612;2023-04-12T02:53:38;17.90;66.10
29321;DHT22;16323;51.130;6.612;2023-04-12T02:56:06;17.90;66.00
29321;DHT22;16323;51.130;6.612;2023-04-12T02:58:34;17.90;65.90
29321;DHT22;16323;51.130;6.612;2023-04-12T03:01:01;17.90;66.10
29321;DHT22;16323;51.130;6.612;2023-04-12T03:03:32;17.90;66.10
29321;DHT22;16323;51.130;6.612;2023-04-12T03:05:59;17.90;66.20
29321;DHT22;16323;51.130;6.612;2023-04-12T03:08:26;17.90;65.90
29321;DHT22;16323;51.130;6.612;2023-04-12T03:10:54;17.90;66.00
29321;DHT22;16323;51.130;6.612;2023-04-12T03:13:21;17.90;66.10
29321;DHT22;16323;51.130;6.612;2023-04-12T03:15:48;17.90;66.10
29321;DHT22;16323;51.130;6.612;2023-04-12T03:18:15;17.90;66.30
29321;DHT22;16323;51.130;6.612;2023-04-12T03:20:45;17.90;66.40
29321;DHT22;16323;51.130;6.612;2023-04-12T03:23:12;17.90;66.50
29321;DHT22;16323;51.130;6.612;2023-04-12T03:25:39;17.90;66.40
29321;DHT22;16323;51.130;6.612;2023-04-12T03:28:08;17.90;66.50
29321;DHT22;16323;51.130;6.612;2023-04-12T03:30:35;17.80;66.30
29321;DHT22;16323;51.130;6.612;2023-04-12T03:33:01;17.90;66.40
29321;DHT22;16323;51.130;6.612;2023-04-12T03:35:28;17.90;66.40
29321;DHT22;16323;51.130;6.612;2023-04-12T03:37:55;17.90;66.40
29321;DHT22;16323;51.130;6.612;2023-04-12T03:40:22;17.90;66.30
29321;DHT22;16323;51.130;6.612;2023-04-12T03:42:48;17.90;66.30
29321;DHT22;16323;51.130;6.612;2023-04-12T03:45:16;17.90;66.10
29321;DHT22;16323;51.130;6.612;2023-04-12T03:47:43;17.90;66.10
29321;DHT22;16323;51.130;6.612;2023-04-12T03:50:10;17.90;65.80
29321;DHT22;16323;51.130;6.612;2023-04-12T03:52:37;17.80;65.70
29321;DHT22;16323;51.130;6.612;2023-04-12T03:55:04;17.80;65.70
29321;DHT22;16323;51.130;6.612;2023-04-12T03:57:31;17.80;65.70
29321;DHT22;16323;51.130;6.612;2023-04-12T03:59:58;17.80;65.90
29321;DHT22;16323;51.130;6.612;2023-04-12T04:02:27;17.80;65.70
29321;DHT22;16323;51.130;6.612;2023-04-12T04:04:53;17.80;65.70
29321;DHT22;16323;51.130;6.612;2023-04-12T04:07:21;17.80;65.80
29321;DHT22;16323;51.130;6.612;2023-04-12T04:09:48;17.80;66.10
29321;DHT22;16323;51.130;6.612;2023-04-12T04:12:15;17.90;66.10
29321;DHT22;16323;51.130;6.612;2023-04-12T04:14:42;17.90;66.30
29321;DHT22;16323;51.130;6.612;2023-04-12T04:17:09;17.90;66.30
29321;DHT22;16323;51.130;6.612;2023-04-12T04:19:37;17.80;66.10
29321;DHT22;16323;51.130;6.612;2023-04-12T04:22:04;17.90;66.10
29321;DHT22;16323;51.130;6.612;2023-04-12T04:24:30;17.90;66.20
29321;DHT22;16323;51.130;6.612;2023-04-12T04:26:58;17.90;66.20
29321;DHT22;16323;51.130;6.612;2023-04-12T04:29:25;17.90;66.30
29321;DHT22;16323;51.130;6.612;2023-04-12T04:31:53;17.90;66.10
29321;DHT22;16323;51.130;6.612;2023-04-12T04:34:21;17.90;66.80
29321;DHT22;16323;51.130;6.612;2023-04-12T04:36:51;17.90;65.90
29321;DHT22;16323;51.130;6.612;2023-04-12T04:39:17;17.90;65.70
29321;DHT22;16323;51.130;6.612;2023-04-12T04:41:45;17.80;65.70
29321;DHT22;16323;51.130;6.612;2023-04-12T04:44:18;17.80;65.60
29321;DHT22;16323;51.130;6.612;2023-04-12T04:46:46;17.80;65.40
29321;DHT22;16323;51.130;6.612;2023-04-12T04:49:13;17.80;65.60
29321;DHT22;16323;51.130;6.612;2023-04-12T04:51:40;17.80;65.50
29321;DHT22;16323;51.130;6.612;2023-04-12T04:54:08;17.80;66.10
29321;DHT22;16323;51.130;6.612;2023-04-12T04:56:35;17.80;66.10
29321;DHT22;16323;51.130;6.612;2023-04-12T04:59:02;17.70;65.50
29321;DHT22;16323;51.130;6.612;2023-04-12T05:01:29;17.70;65.80
29321;DHT22;16323;51.130;6.612;2023-04-12T05:03:56;17.70;67.10
29321;DHT22;16323;51.130;6.612;2023-04-12T05:06:23;17.70;66.10
29321;DHT22;16323;51.130;6.612;2023-04-12T05:08:50;17.70;66.00
29321;DHT22;16323;51.130;6.612;2023-04-12T05:11:19;17.70;66.00
29321;DHT22;16323;51.130;6.612;2023-04-12T05:13:45;17.70;66.30
29321;DHT22;16323;51.130;6.612;2023-04-12T05:16:12;17.70;66.60
29321;DHT22;16323;51.130;6.612;2023-04-12T05:18:39;17.70;66.60
29321;DHT22;16323;51.130;6.612;2023-04-12T05:21:06;17.70;66.50
29321;DHT22;16323;51.130;6.612;2023-04-12T05:23:34;17.80;66.40
29321;DHT22;16323;51.130;6.612;2023-04-12T05:26:02;17.80;66.50
29321;DHT22;16323;51.130;6.612;2023-04-12T05:28:30;17.80;66.60
29321;DHT22;16323;51.130;6.612;2023-04-12T05:30:57;17.80;66.70
29321;DHT22;16323;51.130;6.612;2023-04-12T05:33:24;17.80;66.80
29321;DHT22;16323;51.130;6.612;2023-04-12T05:35:50;17.70;66.60
29321;DHT22;16323;51.130;6.612;2023-04-12T05:38:17;17.70;66.80
29321;DHT22;16323;51.130;6.612;2023-04-12T05:40:44;17.70;66.80
29321;DHT22;16323;51.130;6.612;2023-04-12T05:43:11;17.70;66.80
29321;DHT22;16323;51.130;6.612;2023-04-12T05:45:39;17.80;66.80
29321;DHT22;16323;51.130;6.612;2023-04-12T05:48:06;17.70;66.90
29321;DHT22;16323;51.130;6.612;2023-04-12T05:50:33;17.70;66.90
29321;DHT22;16323;51.130;6.612;2023-04-12T05:53:00;17.70;66.90
29321;DHT22;16323;51.130;6.612;2023-04-12T05:55:27;17.70;66.80
29321;DHT22;16323;51.130;6.612;2023-04-12T05:57:54;17.80;66.90
29321;DHT22;16323;51.130;6.612;2023-04-12T06:00:22;17.70;66.80
29321;DHT22;16323;51.130;6.612;2023-04-12T06:02:50;17.70;66.80
29321;DHT22;16323;51.130;6.612;2023-04-12T06:05:17;17.70;67.00
29321;DHT22;16323;51.130;6.612;2023-04-12T06:07:44;17.70;66.90
29321;DHT22;16323;51.130;6.612;2023-04-12T06:10:12;17.70;66.80
29321;DHT22;16323;51.130;6.612;2023-04-12T06:12:39;17.80;66.90
29321;DHT22;16323;51.130;6.612;2023-04-12T06:15:06;17.80;67.00
29321;DHT22;16323;51.130;6.612;2023-04-12T06:17:33;17.80;66.70
29321;DHT22;16323;51.130;6.612;2023-04-12T06:20:02;17.80;67.10
29321;DHT22;16323;51.130;6.612;2023-04-12T06:22:31;17.80;66.80
29321;DHT22;16323;51.130;6.612;2023-04-12T06:24:57;17.70;66.70
29321;DHT22;16323;51.130;6.612;2023-04-12T06:27:24;17.80;66.80
29321;DHT22;16323;51.130;6.612;2023-04-12T06:29:51;17.80;66.70
29321;DHT22;16323;51.130;6.612;2023-04-12T06:32:18;17.80;66.80
29321;DHT22;16323;51.130;6.612;2023-04-12T06:34:45;17.80;66.70
29321;DHT22;16323;51.130;6.612;2023-04-12T06:37:13;17.80;66.80
29321;DHT22;16323;51.130;6.612;2023-04-12T06:39:40;17.80;66.60
29321;DHT22;16323;51.130;6.612;2023-04-12T06:42:07;17.80;66.80
29321;DHT22;16323;51.130;6.612;2023-04-12T06:44:33;17.80;66.80
29321;DHT22;16323;51.130;6.612;2023-04-12T06:47:00;17.80;66.80
29321;DHT22;16323;51.130;6.612;2023-04-12T06:49:27;17.80;66.70
29321;DHT22;16323;51.130;6.612;2023-04-12T06:51:54;17.80;66.60
29321;DHT22;16323;51.130;6.612;2023-04-12T06:54:22;17.80;66.70
29321;DHT22;16323;51.130;6.612;2023-04-12T06:56:48;17.80;66.80
29321;DHT22;16323;51.130;6.612;2023-04-12T06:59:15;17.80;66.70
29321;DHT22;16323;51.130;6.612;2023-04-12T07:01:42;17.80;66.70
29321;DHT22;16323;51.130;6.612;2023-04-12T07:04:10;17.80;66.70
29321;DHT22;16323;51.130;6.612;2023-04-12T07:06:36;17.80;66.80
29321;DHT22;16323;51.130;6.612;2023-04-12T07:09:03;17.80;66.70
29321;DHT22;16323;51.130;6.612;2023-04-12T07:11:31;17.80;66.70
29321;DHT22;16323;51.130;6.612;2023-04-12T07:13:58;17.80;66.70
29321;DHT22;16323;51.130;6.612;2023-04-12T07:16:25;17.80;66.50
29321;DHT22;16323;51.130;6.612;2023-04-12T07:18:51;17.80;66.60
29321;DHT22;16323;51.130;6.612;2023-04-12T07:21:18;17.80;66.60
29321;DHT22;16323;51.130;6.612;2023-04-12T07:23:45;17.80;66.70
29321;DHT22;16323;51.130;6.612;2023-04-12T07:26:15;17.90;66.80
29321;DHT22;16323;51.130;6.612;2023-04-12T07:28:43;17.80;67.60
29321;DHT22;16323;51.130;6.612;2023-04-12T07:31:10;17.80;66.30
29321;DHT22;16323;51.130;6.612;2023-04-12T07:33:37;17.70;66.00
29321;DHT22;16323;51.130;6.612;2023-04-12T07:36:04;17.70;66.00
29321;DHT22;16323;51.130;6.612;2023-04-12T07:38:31;17.70;66.00
29321;DHT22;16323;51.130;6.612;2023-04-12T07:40:58;17.70;65.90
29321;DHT22;16323;51.130;6.612;2023-04-12T07:43:25;17.70;65.70
29321;DHT22;16323;51.130;6.612;2023-04-12T07:45:54;17.70;65.90
29321;DHT22;16323;51.130;6.612;2023-04-12T07:48:21;17.80;65.70
29321;DHT22;16323;51.130;6.612;2023-04-12T07:50:48;17.70;65.60
29321;DHT22;16323;51.130;6.612;2023-04-12T07:53:19;17.80;65.70
29321;DHT22;16323;51.130;6.612;2023-04-12T07:55:47;17.80;65.70
29321;DHT22;16323;51.130;6.612;2023-04-12T07:58:13;17.80;65.90
29321;DHT22;16323;51.130;6.612;2023-04-12T08:00:41;17.80;65.90
29321;DHT22;16323;51.130;6.612;2023-04-12T08:03:10;17.80;66.00
29321;DHT22;16323;51.130;6.612;2023-04-12T08:05:38;17.80;66.20
29321;DHT22;16323;51.130;6.612;2023-04-12T08:08:05;17.80;66.20
29321;DHT22;16323;51.130;6.612;2023-04-12T08:10:34;17.80;66.40
29321;DHT22;16323;51.130;6.612;2023-04-12T08:13:01;17.80;66.50
29321;DHT22;16323;51.130;6.612;2023-04-12T08:15:28;17.80;66.70
29321;DHT22;16323;51.130;6.612;2023-04-12T08:17:55;17.80;66.90
29321;DHT22;16323;51.130;6.612;2023-04-12T08:20:23;17.80;67.00
29321;DHT22;16323;51.130;6.612;2023-04-12T08:22:50;17.80;67.10
29321;DHT22;16323;51.130;6.612;2023-04-12T08:25:19;17.80;67.20
29321;DHT22;16323;51.130;6.612;2023-04-12T08:27:48;17.80;67.30
29321;DHT22;16323;51.130;6.612;2023-04-12T08:30:16;17.80;67.30
29321;DHT22;16323;51.130;6.612;2023-04-12T08:32:43;17.80;67.30
29321;DHT22;16323;51.130;6.612;2023-04-12T08:35:10;17.80;67.40
29321;DHT22;16323;51.130;6.612;2023-04-12T08:37:38;17.80;67.40
29321;DHT22;16323;51.130;6.612;2023-04-12T08:40:06;17.90;67.60
29321;DHT22;16323;51.130;6.612;2023-04-12T08:42:33;17.80;67.50
29321;DHT22;16323;51.130;6.612;2023-04-12T08:45:03;17.90;67.70
29321;DHT22;16323;51.130;6.612;2023-04-12T08:47:31;17.80;67.60
29321;DHT22;16323;51.130;6.612;2023-04-12T08:49:59;17.90;67.70
29321;DHT22;16323;51.130;6.612;2023-04-12T08:52:26;17.90;67.70
29321;DHT22;16323;51.130;6.612;2023-04-12T08:54:55;17.80;67.70
29321;DHT22;16323;51.130;6.612;2023-04-12T08:57:22;17.90;67.70
29321;DHT22;16323;51.130;6.612;2023-04-12T08:59:49;17.90;67.80
29321;DHT22;16323;51.130;6.612;2023-04-12T09:02:17;17.90;67.80
29321;DHT22;16323;51.130;6.612;2023-04-12T09:04:48;17.90;67.80
29321;DHT22;16323;51.130;6.612;2023-04-12T09:07:15;17.90;67.80
29321;DHT22;16323;51.130;6.612;2023-04-12T09:09:43;17.90;67.90
29321;DHT22;16323;51.130;6.612;2023-04-12T09:12:12;17.90;68.10
29321;DHT22;16323;51.130;6.612;2023-04-12T09:14:40;17.90;68.10
29321;DHT22;16323;51.130;6.612;2023-04-12T09:17:20;17.90;68.20
29321;DHT22;16323;51.130;6.612;2023-04-12T09:19:48;17.90;68.10
29321;DHT22;16323;51.130;6.612;2023-04-12T09:22:14;17.90;68.10
29321;DHT22;16323;51.130;6.612;2023-04-12T09:24:49;17.90;69.20
29321;DHT22;16323;51.130;6.612;2023-04-12T09:27:19;17.90;68.20
29321;DHT22;16323;51.130;6.612;2023-04-12T09:29:46;17.90;68.30
29321;DHT22;16323;51.130;6.612;2023-04-12T09:32:23;17.90;68.30
29321;DHT22;16323;51.130;6.612;2023-04-12T09:34:54;17.90;68.40
29321;DHT22;16323;51.130;6.612;2023-04-12T09:37:22;17.90;68.40
29321;DHT22;16323;51.130;6.612;2023-04-12T09:39:57;17.90;68.40
29321;DHT22;16323;51.130;6.612;2023-04-12T09:42:27;17.90;68.50
29321;DHT22;16323;51.130;6.612;2023-04-12T09:44:54;17.90;68.50
29321;DHT22;16323;51.130;6.612;2023-04-12T09:47:21;17.90;68.50
29321;DHT22;16323;51.130;6.612;2023-04-12T09:49:49;17.90;68.50
29321;DHT22;16323;51.130;6.612;2023-04-12T09:52:16;17.90;68.70
29321;DHT22;16323;51.130;6.612;2023-04-12T09:54:44;17.90;68.70
29321;DHT22;16323;51.130;6.612;2023-04-12T09:57:12;17.90;68.90
29321;DHT22;16323;51.130;6.612;2023-04-12T09:59:41;17.90;68.90
29321;DHT22;16323;51.130;6.612;2023-04-12T10:02:13;17.90;68.80
29321;DHT22;16323;51.130;6.612;2023-04-12T10:04:41;17.90;68.80
29321;DHT22;16323;51.130;6.612;2023-04-12T10:07:08;17.90;68.80
29321;DHT22;16323;51.130;6.612;2023-04-12T10:09:37;17.90;68.80
29321;DHT22;16323;51.130;6.612;2023-04-12T10:12:04;17.90;68.70
29321;DHT22;16323;51.130;6.612;2023-04-12T10:14:31;17.90;68.70
29321;DHT22;16323;51.130;6.612;2023-04-12T10:17:01;17.90;68.60
29321;DHT22;16323;51.130;6.612;2023-04-12T10:19:29;17.90;68.70
29321;DHT22;16323;51.130;6.612;2023-04-12T10:21:58;17.90;68.70
29321;DHT22;16323;51.130;6.612;2023-04-12T10:24:27;17.90;68.60
29321;DHT22;16323;51.130;6.612;2023-04-12T10:26:54;17.90;68.50
29321;DHT22;16323;51.130;6.612;2023-04-12T10:29:25;17.90;68.50
29321;DHT22;16323;51.130;6.612;2023-04-12T10:31:53;17.90;68.50
29321;DHT22;16323;51.130;6.612;2023-04-12T10:34:26;17.90;68.50
29321;DHT22;16323;51.130;6.612;2023-04-12T10:36:54;17.90;69.40
29321;DHT22;16323;51.130;6.612;2023-04-12T10:39:36;17.90;68.40
29321;DHT22;16323;51.130;6.612;2023-04-12T10:42:20;17.90;68.30
29321;DHT22;16323;51.130;6.612;2023-04-12T10:44:49;17.90;68.30
29321;DHT22;16323;51.130;6.612;2023-04-12T10:47:54;17.90;68.30
29321;DHT22;16323;51.130;6.612;2023-04-12T10:50:28;17.90;68.30
29321;DHT22;16323;51.130;6.612;2023-04-12T10:53:21;17.90;68.00
29321;DHT22;16323;51.130;6.612;2023-04-12T10:55:49;17.90;68.00
29321;DHT22;16323;51.130;6.612;2023-04-12T10:58:54;17.80;68.00
29321;DHT22;16323;51.130;6.612;2023-04-12T11:01:21;17.90;68.20
29321;DHT22;16323;51.130;6.612;2023-04-12T11:04:07;17.90;68.20
29321;DHT22;16323;51.130;6.612;2023-04-12T11:06:56;17.90;68.20
29321;DHT22;16323;51.130;6.612;2023-04-12T11:09:25;17.90;68.20
29321;DHT22;16323;51.130;6.612;2023-04-12T11:11:57;17.90;68.30
29321;DHT22;16323;51.130;6.612;2023-04-12T11:14:29;17.90;68.20
29321;DHT22;16323;51.130;6.612;2023-04-12T11:17:21;17.90;68.30
29321;DHT22;16323;51.130;6.612;2023-04-12T11:19:59;18.00;68.40
29321;DHT22;16323;51.130;6.612;2023-04-12T11:22:29;17.90;68.20
29321;DHT22;16323;51.130;6.612;2023-04-12T11:24:58;17.90;68.30
29321;DHT22;16323;51.130;6.612;2023-04-12T11:27:26;17.90;68.20
29321;DHT22;16323;51.130;6.612;2023-04-12T11:29:55;17.90;68.20
29321;DHT22;16323;51.130;6.612;2023-04-12T11:32:24;17.90;68.10
29321;DHT22;16323;51.130;6.612;2023-04-12T11:34:52;17.90;68.10
29321;DHT22;16323;51.130;6.612;2023-04-12T11:37:20;17.90;68.00
29321;DHT22;16323;51.130;6.612;2023-04-12T11:39:50;17.90;67.90
29321;DHT22;16323;51.130;6.612;2023-04-12T11:42:19;17.90;67.80
29321;DHT22;16323;51.130;6.612;2023-04-12T11:44:46;17.90;67.90
29321;DHT22;16323;51.130;6.612;2023-04-12T11:47:14;17.90;67.80
29321;DHT22;16323;51.130;6.612;2023-04-12T11:49:46;17.90;67.80
29321;DHT22;16323;51.130;6.612;2023-04-12T11:52:14;17.90;67.80
29321;DHT22;16323;51.130;6.612;2023-04-12T11:54:43;17.90;68.00
29321;DHT22;16323;51.130;6.612;2023-04-12T11:57:13;17.90;68.00
29321;DHT22;16323;51.130;6.612;2023-04-12T11:59:43;17.90;67.90
29321;DHT22;16323;51.130;6.612;2023-04-12T12:02:10;17.90;68.00
29321;DHT22;16323;51.130;6.612;2023-04-12T12:04:39;17.90;67.80
29321;DHT22;16323;51.130;6.612;2023-04-12T12:07:06;17.90;67.90
29321;DHT22;16323;51.130;6.612;2023-04-12T12:09:34;17.90;67.90
29321;DHT22;16323;51.130;6.612;2023-04-12T12:12:01;17.90;67.80
29321;DHT22;16323;51.130;6.612;2023-04-12T12:14:33;18.00;67.80
29321;DHT22;16323;51.130;6.612;2023-04-12T12:17:00;17.90;67.80
29321;DHT22;16323;51.130;6.612;2023-04-12T12:19:31;18.00;67.80
29321;DHT22;16323;51.130;6.612;2023-04-12T12:22:12;17.90;67.60
29321;DHT22;16323;51.130;6.612;2023-04-12T12:24:43;17.90;67.50
29321;DHT22;16323;51.130;6.612;2023-04-12T12:27:11;18.00;67.70
29321;DHT22;16323;51.130;6.612;2023-04-12T12:29:39;17.90;67.40
29321;DHT22;16323;51.130;6.612;2023-04-12T12:32:10;18.00;67.20
29321;DHT22;16323;51.130;6.612;2023-04-12T12:34:38;17.90;67.30
29321;DHT22;16323;51.130;6.612;2023-04-12T12:37:11;18.00;68.50
29321;DHT22;16323;51.130;6.612;2023-04-12T12:39:38;17.90;67.50
29321;DHT22;16323;51.130;6.612;2023-04-12T12:42:05;17.90;67.50
29321;DHT22;16323;51.130;6.612;2023-04-12T12:44:32;17.90;67.50
29321;DHT22;16323;51.130;6.612;2023-04-12T12:47:01;17.90;67.50
29321;DHT22;16323;51.130;6.612;2023-04-12T12:49:28;17.90;67.50
29321;DHT22;16323;51.130;6.612;2023-04-12T12:51:55;17.90;67.60
29321;DHT22;16323;51.130;6.612;2023-04-12T12:54:22;17.90;67.50
29321;DHT22;16323;51.130;6.612;2023-04-12T12:56:49;17.90;67.50
29321;DHT22;16323;51.130;6.612;2023-04-12T12:59:15;17.90;67.50
29321;DHT22;16323;51.130;6.612;2023-04-12T13:01:42;17.90;67.50
29321;DHT22;16323;51.130;6.612;2023-04-12T13:04:10;17.90;67.50
29321;DHT22;16323;51.130;6.612;2023-04-12T13:06:37;17.90;67.50
29321;DHT22;16323;51.130;6.612;2023-04-12T13:09:04;17.90;67.50
29321;DHT22;16323;51.130;6.612;2023-04-12T13:11:31;17.90;67.50
29321;DHT22;16323;51.130;6.612;2023-04-12T13:13:58;17.90;67.20
29321;DHT22;16323;51.130;6.612;2023-04-12T13:16:25;18.00;67.30
29321;DHT22;16323;51.130;6.612;2023-04-12T13:18:51;17.90;67.10
29321;DHT22;16323;51.130;6.612;2023-04-12T13:21:20;17.90;67.10
29321;DHT22;16323;51.130;6.612;2023-04-12T13:23:46;17.90;67.10
29321;DHT22;16323;51.130;6.612;2023-04-12T13:26:13;17.90;67.10
29321;DHT22;16323;51.130;6.612;2023-04-12T13:28:40;17.90;67.10
29321;DHT22;16323;51.130;6.612;2023-04-12T13:31:07;17.90;67.00
29321;DHT22;16323;51.130;6.612;2023-04-12T13:33:33;17.90;66.70
29321;DHT22;16323;51.130;6.612;2023-04-12T13:36:00;17.90;66.40
29321;DHT22;16323;51.130;6.612;2023-04-12T13:38:29;18.00;66.20
29321;DHT22;16323;51.130;6.612;2023-04-12T13:40:55;18.00;65.80
29321;DHT22;16323;51.130;6.612;2023-04-12T13:43:22;18.00;65.70
29321;DHT22;16323;51.130;6.612;2023-04-12T13:45:49;18.00;65.60
29321;DHT22;16323;51.130;6.612;2023-04-12T13:48:15;18.00;65.90
29321;DHT22;16323;51.130;6.612;2023-04-12T13:50:44;18.00;65.90
29321;DHT22;16323;51.130;6.612;2023-04-12T13:53:10;18.00;65.70
29321;DHT22;16323;51.130;6.612;2023-04-12T13:55:38;18.00;65.80
29321;DHT22;16323;51.130;6.612;2023-04-12T13:58:05;18.00;65.90
29321;DHT22;16323;51.130;6.612;2023-04-12T14:00:32;18.10;66.40
29321;DHT22;16323;51.130;6.612;2023-04-12T14:02:59;18.00;66.10
29321;DHT22;16323;51.130;6.612;2023-04-12T14:05:26;18.00;66.20
29321;DHT22;16323;51.130;6.612;2023-04-12T14:07:53;18.00;66.30
29321;DHT22;16323;51.130;6.612;2023-04-12T14:10:20;18.00;66.30
29321;DHT22;16323;51.130;6.612;2023-04-12T14:12:48;18.00;66.30
29321;DHT22;16323;51.130;6.612;2023-04-12T14:15:15;18.00;66.40
29321;DHT22;16323;51.130;6.612;2023-04-12T14:17:42;18.00;67.80
29321;DHT22;16323;51.130;6.612;2023-04-12T14:20:09;18.00;66.60
29321;DHT22;16323;51.130;6.612;2023-04-12T14:22:36;17.90;66.60
29321;DHT22;16323;51.130;6.612;2023-04-12T14:25:04;18.00;66.80
29321;DHT22;16323;51.130;6.612;2023-04-12T14:27:31;18.00;66.90
29321;DHT22;16323;51.130;6.612;2023-04-12T14:30:01;18.00;67.00
29321;DHT22;16323;51.130;6.612;2023-04-12T14:32:27;18.00;67.10
29321;DHT22;16323;51.130;6.612;2023-04-12T14:34:54;18.00;67.30
29321;DHT22;16323;51.130;6.612;2023-04-12T14:37:21;18.00;67.40
29321;DHT22;16323;51.130;6.612;2023-04-12T14:39:48;18.00;67.30
29321;DHT22;16323;51.130;6.612;2023-04-12T14:42:15;18.00;67.60
29321;DHT22;16323;51.130;6.612;2023-04-12T14:44:42;17.90;67.50
29321;DHT22;16323;51.130;6.612;2023-04-12T14:47:10;17.90;67.50
29321;DHT22;16323;51.130;6.612;2023-04-12T14:49:37;17.90;67.40
29321;DHT22;16323;51.130;6.612;2023-04-12T14:52:03;17.90;67.20
29321;DHT22;16323;51.130;6.612;2023-04-12T14:54:30;17.90;67.20
29321;DHT22;16323;51.130;6.612;2023-04-12T14:56:58;17.90;67.10
29321;DHT22;16323;51.130;6.612;2023-04-12T14:59:25;17.90;67.10
29321;DHT22;16323;51.130;6.612;2023-04-12T15:01:52;17.90;67.00
29321;DHT22;16323;51.130;6.612;2023-04-12T15:04:20;17.90;67.00
29321;DHT22;16323;51.130;6.612;2023-04-12T15:06:47;17.80;66.90
29321;DHT22;16323;51.130;6.612;2023-04-12T15:09:14;17.90;67.00
29321;DHT22;16323;51.130;6.612;2023-04-12T15:11:42;17.80;66.60
29321;DHT22;16323;51.130;6.612;2023-04-12T15:14:11;17.80;66.80
29321;DHT22;16323;51.130;6.612;2023-04-12T15:16:42;17.90;67.00
29321;DHT22;16323;51.130;6.612;2023-04-12T15:19:10;17.90;66.70
29321;DHT22;16323;51.130;6.612;2023-04-12T15:21:38;17.90;66.70
29321;DHT22;16323;51.130;6.612;2023-04-12T15:24:05;17.80;66.60
29321;DHT22;16323;51.130;6.612;2023-04-12T15:26:33;17.80;66.50
29321;DHT22;16323;51.130;6.612;2023-04-12T15:29:00;17.90;66.60
29321;DHT22;16323;51.130;6.612;2023-04-12T15:31:28;17.90;66.50
29321;DHT22;16323;51.130;6.612;2023-04-12T15:33:54;17.90;66.50
29321;DHT22;16323;51.130;6.612;2023-04-12T15:36:22;17.90;66.60
29321;DHT22;16323;51.130;6.612;2023-04-12T15:38:59;17.90;66.60